sensor_id;sensor_type;location;lat;lon;timestamp;P1;durP1;ratioP1;P2;durP2;ratioP2
52848;SDS011;38714;53.180;5.812;2022-11-15T00:00:05;21.27;;;13.10;;
52848;SDS011;38714;53.180;5.812;2022-11-15T00:02:32;19.05;;;11.35;;
52848;SDS011;38714;53.180;5.812;2022-11-15T00:04:57;14.57;;;10.88;;
52848;SDS011;38714;53.180;5.812;2022-11-15T00:07:23;19.02;;;12.60;;
52848;SDS011;38714;53.180;5.812;2022-11-15T00:09:48;17.30;;;12.18;;
52848;SDS011;38714;53.180;5.812;2022-11-15T00:12:14;14.18;;;10.25;;
52848;SDS011;38714;53.180;5.812;2022-11-15T00:14:39;14.65;;;11.25;;
52848;SDS011;38714;53.180;5.812;2022-11-15T00:17:05;23.00;;;13.35;;
52848;SDS011;38714;53.180;5.812;2022-11-15T00:19:30;19.30;;;11.02;;
52848;SDS011;38714;53.180;5.812;2022-11-15T00:21:56;13.80;;;10.85;;
52848;SDS011;38714;53.180;5.812;2022-11-15T00:24:21;16.50;;;11.23;;
52848;SDS011;38714;53.180;5.812;2022-11-15T00:26:47;16.65;;;11.82;;
52848;SDS011;38714;53.180;5.812;2022-11-15T00:29:13;12.25;;;8.52;;
52848;SDS011;38714;53.180;5.812;2022-11-15T00:31:38;15.02;;;10.02;;
52848;SDS011;38714;53.180;5.812;2022-11-15T00:34:04;13.32;;;9.85;;
52848;SDS011;38714;53.180;5.812;2022-11-15T00:36:32;13.05;;;9.90;;
52848;SDS011;38714;53.180;5.812;2022-11-15T00:38:58;16.35;;;10.43;;
52848;SDS011;38714;53.180;5.812;2022-11-15T00:41:23;18.08;;;11.43;;
52848;SDS011;38714;53.180;5.812;2022-11-15T00:43:49;15.52;;;11.80;;
52848;SDS011;38714;53.180;5.812;2022-11-15T00:46:15;21.40;;;12.55;;
52848;SDS011;38714;53.180;5.812;2022-11-15T00:48:40;16.73;;;10.77;;
52848;SDS011;38714;53.180;5.812;2022-11-15T00:51:06;17.77;;;11.13;;
52848;SDS011;38714;53.180;5.812;2022-11-15T00:53:31;17.40;;;11.18;;
52848;SDS011;38714;53.180;5.812;2022-11-15T00:55:57;17.90;;;10.82;;
52848;SDS011;38714;53.180;5.812;2022-11-15T00:58:23;16.25;;;11.55;;
52848;SDS011;38714;53.180;5.812;2022-11-15T01:00:49;19.05;;;12.05;;
52848;SDS011;38714;53.180;5.812;2022-11-15T01:03:14;12.50;;;11.02;;
52848;SDS011;38714;53.180;5.812;2022-11-15T01:05:40;14.90;;;10.95;;
52848;SDS011;38714;53.180;5.812;2022-11-15T01:08:05;15.63;;;12.30;;
52848;SDS011;38714;53.180;5.812;2022-11-15T01:10:31;20.13;;;12.43;;
52848;SDS011;38714;53.180;5.812;2022-11-15T01:12:57;19.58;;;13.18;;
52848;SDS011;38714;53.180;5.812;2022-11-15T01:15:22;18.38;;;11.60;;
52848;SDS011;38714;53.180;5.812;2022-11-15T01:17:48;16.58;;;11.10;;
52848;SDS011;38714;53.180;5.812;2022-11-15T01:20:13;13.45;;;9.88;;
52848;SDS011;38714;53.180;5.812;2022-11-15T01:22:39;15.68;;;10.68;;
52848;SDS011;38714;53.180;5.812;2022-11-15T01:25:04;13.95;;;10.80;;
52848;SDS011;38714;53.180;5.812;2022-11-15T01:27:30;14.80;;;9.63;;
52848;SDS011;38714;53.180;5.812;2022-11-15T01:29:56;17.73;;;12.73;;
52848;SDS011;38714;53.180;5.812;2022-11-15T01:32:21;15.90;;;11.52;;
52848;SDS011;38714;53.180;5.812;2022-11-15T01:34:47;13.57;;;11.85;;
52848;SDS011;38714;53.180;5.812;2022-11-15T01:37:12;23.65;;;14.20;;
52848;SDS011;38714;53.180;5.812;2022-11-15T01:39:38;19.60;;;12.77;;
52848;SDS011;38714;53.180;5.812;2022-11-15T01:42:03;17.95;;;13.00;;
52848;SDS011;38714;53.180;5.812;2022-11-15T01:47:24;15.52;;;11.27;;
52848;SDS011;38714;53.180;5.812;2022-11-15T01:50:14;18.17;;;10.57;;
52848;SDS011;38714;53.180;5.812;2022-11-15T01:52:40;17.60;;;12.57;;
52848;SDS011;38714;53.180;5.812;2022-11-15T01:55:18;17.73;;;13.73;;
52848;SDS011;38714;53.180;5.812;2022-11-15T01:57:46;24.58;;;14.38;;
52848;SDS011;38714;53.180;5.812;2022-11-15T02:00:15;22.73;;;13.68;;
52848;SDS011;38714;53.180;5.812;2022-11-15T02:02:41;18.42;;;12.82;;
52848;SDS011;38714;53.180;5.812;2022-11-15T02:05:07;22.77;;;13.55;;
52848;SDS011;38714;53.180;5.812;2022-11-15T02:07:33;25.27;;;13.93;;
52848;SDS011;38714;53.180;5.812;2022-11-15T02:10:16;21.58;;;12.63;;
52848;SDS011;38714;53.180;5.812;2022-11-15T02:12:44;21.45;;;10.63;;
52848;SDS011;38714;53.180;5.812;2022-11-15T02:15:11;18.92;;;10.90;;
52848;SDS011;38714;53.180;5.812;2022-11-15T02:23:27;19.05;;;10.85;;
52848;SDS011;38714;53.180;5.812;2022-11-15T02:29:07;19.52;;;12.13;;
52848;SDS011;38714;53.180;5.812;2022-11-15T02:34:28;15.98;;;11.73;;
52848;SDS011;38714;53.180;5.812;2022-11-15T02:39:50;15.70;;;10.30;;
52848;SDS011;38714;53.180;5.812;2022-11-15T02:42:26;22.95;;;13.32;;
52848;SDS011;38714;53.180;5.812;2022-11-15T02:45:17;18.15;;;12.38;;
52848;SDS011;38714;53.180;5.812;2022-11-15T02:47:48;19.38;;;12.23;;
52848;SDS011;38714;53.180;5.812;2022-11-15T02:50:18;20.02;;;13.65;;
52848;SDS011;38714;53.180;5.812;2022-11-15T02:52:47;24.77;;;13.18;;
52848;SDS011;38714;53.180;5.812;2022-11-15T02:55:32;26.70;;;13.27;;
52848;SDS011;38714;53.180;5.812;2022-11-15T02:58:23;19.45;;;12.63;;
52848;SDS011;38714;53.180;5.812;2022-11-15T03:01:00;24.00;;;12.85;;
52848;SDS011;38714;53.180;5.812;2022-11-15T03:11:20;28.13;;;16.02;;
52848;SDS011;38714;53.180;5.812;2022-11-15T03:22:02;21.52;;;15.32;;
52848;SDS011;38714;53.180;5.812;2022-11-15T03:24:36;22.58;;;15.05;;
52848;SDS011;38714;53.180;5.812;2022-11-15T03:27:03;25.90;;;15.63;;
52848;SDS011;38714;53.180;5.812;2022-11-15T03:29:39;30.38;;;16.45;;
52848;SDS011;38714;53.180;5.812;2022-11-15T03:32:14;39.63;;;18.48;;
52848;SDS011;38714;53.180;5.812;2022-11-15T03:37:11;28.02;;;14.05;;
52848;SDS011;38714;53.180;5.812;2022-11-15T03:39:39;24.00;;;15.35;;
52848;SDS011;38714;53.180;5.812;2022-11-15T03:50:00;23.30;;;16.10;;
52848;SDS011;38714;53.180;5.812;2022-11-15T03:52:35;34.90;;;18.92;;
52848;SDS011;38714;53.180;5.812;2022-11-15T03:55:02;37.40;;;19.27;;
52848;SDS011;38714;53.180;5.812;2022-11-15T03:57:30;27.65;;;16.48;;
52848;SDS011;38714;53.180;5.812;2022-11-15T03:59:55;33.95;;;17.65;;
52848;SDS011;38714;53.180;5.812;2022-11-15T04:02:21;39.28;;;18.10;;
52848;SDS011;38714;53.180;5.812;2022-11-15T04:04:46;32.42;;;18.13;;
52848;SDS011;38714;53.180;5.812;2022-11-15T04:07:12;36.85;;;17.23;;
52848;SDS011;38714;53.180;5.812;2022-11-15T04:09:38;40.75;;;19.50;;
52848;SDS011;38714;53.180;5.812;2022-11-15T04:12:23;33.25;;;18.25;;
52848;SDS011;38714;53.180;5.812;2022-11-15T04:14:59;29.75;;;17.70;;
52848;SDS011;38714;53.180;5.812;2022-11-15T04:17:52;30.70;;;20.70;;
52848;SDS011;38714;53.180;5.812;2022-11-15T04:20:29;37.53;;;19.08;;
52848;SDS011;38714;53.180;5.812;2022-11-15T04:23:18;28.75;;;19.77;;
52848;SDS011;38714;53.180;5.812;2022-11-15T04:26:05;36.38;;;19.38;;
52848;SDS011;38714;53.180;5.812;2022-11-15T04:28:35;26.27;;;15.45;;
52848;SDS011;38714;53.180;5.812;2022-11-15T04:31:21;34.65;;;17.95;;
52848;SDS011;38714;53.180;5.812;2022-11-15T04:33:47;28.13;;;20.77;;
52848;SDS011;38714;53.180;5.812;2022-11-15T04:36:12;28.88;;;17.67;;
52848;SDS011;38714;53.180;5.812;2022-11-15T04:38:57;29.77;;;17.55;;
52848;SDS011;38714;53.180;5.812;2022-11-15T04:41:22;27.08;;;16.73;;
52848;SDS011;38714;53.180;5.812;2022-11-15T04:43:48;32.40;;;18.23;;
52848;SDS011;38714;53.180;5.812;2022-11-15T04:46:14;28.45;;;18.33;;
52848;SDS011;38714;53.180;5.812;2022-11-15T04:48:39;28.25;;;15.85;;
52848;SDS011;38714;53.180;5.812;2022-11-15T04:51:05;30.95;;;16.67;;
52848;SDS011;38714;53.180;5.812;2022-11-15T04:53:30;35.50;;;16.77;;
52848;SDS011;38714;53.180;5.812;2022-11-15T04:55:56;33.03;;;16.67;;
52848;SDS011;38714;53.180;5.812;2022-11-15T04:58:21;36.20;;;14.98;;
52848;SDS011;38714;53.180;5.812;2022-11-15T05:00:47;26.40;;;16.85;;
52848;SDS011;38714;53.180;5.812;2022-11-15T05:03:12;26.80;;;16.95;;
52848;SDS011;38714;53.180;5.812;2022-11-15T05:05:57;24.92;;;14.38;;
52848;SDS011;38714;53.180;5.812;2022-11-15T05:08:23;44.97;;;18.77;;
52848;SDS011;38714;53.180;5.812;2022-11-15T05:10:49;36.92;;;17.58;;
52848;SDS011;38714;53.180;5.812;2022-11-15T05:13:15;33.53;;;17.85;;
52848;SDS011;38714;53.180;5.812;2022-11-15T05:15:41;32.67;;;17.90;;
52848;SDS011;38714;53.180;5.812;2022-11-15T05:18:06;34.75;;;17.88;;
52848;SDS011;38714;53.180;5.812;2022-11-15T05:20:32;28.33;;;17.40;;
52848;SDS011;38714;53.180;5.812;2022-11-15T05:22:57;43.22;;;20.75;;
52848;SDS011;38714;53.180;5.812;2022-11-15T05:25:23;39.95;;;18.08;;
52848;SDS011;38714;53.180;5.812;2022-11-15T05:27:49;37.75;;;18.40;;
52848;SDS011;38714;53.180;5.812;2022-11-15T05:30:15;39.28;;;19.20;;
52848;SDS011;38714;53.180;5.812;2022-11-15T05:32:41;40.25;;;21.63;;
52848;SDS011;38714;53.180;5.812;2022-11-15T05:35:07;33.28;;;19.75;;
52848;SDS011;38714;53.180;5.812;2022-11-15T05:37:37;42.05;;;22.55;;
52848;SDS011;38714;53.180;5.812;2022-11-15T05:40:02;35.83;;;19.67;;
52848;SDS011;38714;53.180;5.812;2022-11-15T05:42:28;53.70;;;26.75;;
52848;SDS011;38714;53.180;5.812;2022-11-15T05:44:55;43.53;;;21.02;;
52848;SDS011;38714;53.180;5.812;2022-11-15T05:47:23;45.95;;;24.08;;
52848;SDS011;38714;53.180;5.812;2022-11-15T05:49:52;39.40;;;22.05;;
52848;SDS011;38714;53.180;5.812;2022-11-15T05:52:20;38.72;;;23.48;;
52848;SDS011;38714;53.180;5.812;2022-11-15T05:54:48;48.55;;;25.20;;
52848;SDS011;38714;53.180;5.812;2022-11-15T05:57:15;48.35;;;24.92;;
52848;SDS011;38714;53.180;5.812;2022-11-15T05:59:40;43.53;;;24.38;;
52848;SDS011;38714;53.180;5.812;2022-11-15T06:02:08;45.85;;;24.52;;
52848;SDS011;38714;53.180;5.812;2022-11-15T06:04:34;43.13;;;23.73;;
52848;SDS011;38714;53.180;5.812;2022-11-15T06:07:00;42.65;;;25.60;;
52848;SDS011;38714;53.180;5.812;2022-11-15T06:09:26;55.67;;;27.40;;
52848;SDS011;38714;53.180;5.812;2022-11-15T06:11:51;50.15;;;27.85;;
52848;SDS011;38714;53.180;5.812;2022-11-15T06:14:17;51.25;;;25.50;;
52848;SDS011;38714;53.180;5.812;2022-11-15T06:16:43;46.42;;;26.63;;
52848;SDS011;38714;53.180;5.812;2022-11-15T06:19:09;49.50;;;25.48;;
52848;SDS011;38714;53.180;5.812;2022-11-15T06:21:34;54.08;;;24.08;;
52848;SDS011;38714;53.180;5.812;2022-11-15T06:24:00;40.22;;;22.73;;
52848;SDS011;38714;53.180;5.812;2022-11-15T06:26:26;46.33;;;24.02;;
52848;SDS011;38714;53.180;5.812;2022-11-15T06:28:51;48.97;;;25.25;;
52848;SDS011;38714;53.180;5.812;2022-11-15T06:31:17;48.38;;;25.20;;
52848;SDS011;38714;53.180;5.812;2022-11-15T06:33:42;49.60;;;26.73;;
52848;SDS011;38714;53.180;5.812;2022-11-15T06:36:09;45.95;;;23.98;;
52848;SDS011;38714;53.180;5.812;2022-11-15T06:38:38;58.28;;;27.67;;
52848;SDS011;38714;53.180;5.812;2022-11-15T06:41:05;53.75;;;27.13;;
52848;SDS011;38714;53.180;5.812;2022-11-15T06:43:33;44.42;;;26.52;;
52848;SDS011;38714;53.180;5.812;2022-11-15T06:46:00;54.25;;;25.85;;
52848;SDS011;38714;53.180;5.812;2022-11-15T06:48:26;46.08;;;27.08;;
52848;SDS011;38714;53.180;5.812;2022-11-15T06:50:52;55.42;;;27.38;;
52848;SDS011;38714;53.180;5.812;2022-11-15T06:53:19;56.47;;;30.92;;
52848;SDS011;38714;53.180;5.812;2022-11-15T06:55:45;50.65;;;28.63;;
52848;SDS011;38714;53.180;5.812;2022-11-15T06:58:11;59.55;;;30.80;;
52848;SDS011;38714;53.180;5.812;2022-11-15T07:00:36;60.22;;;30.60;;
52848;SDS011;38714;53.180;5.812;2022-11-15T07:03:02;52.90;;;28.83;;
52848;SDS011;38714;53.180;5.812;2022-11-15T07:05:28;50.22;;;29.63;;
52848;SDS011;38714;53.180;5.812;2022-11-15T07:07:55;63.15;;;32.80;;
52848;SDS011;38714;53.180;5.812;2022-11-15T07:10:21;57.03;;;33.13;;
52848;SDS011;38714;53.180;5.812;2022-11-15T07:12:49;70.40;;;36.15;;
52848;SDS011;38714;53.180;5.812;2022-11-15T07:15:16;54.75;;;31.35;;
52848;SDS011;38714;53.180;5.812;2022-11-15T07:17:43;64.13;;;33.72;;
52848;SDS011;38714;53.180;5.812;2022-11-15T07:20:08;77.85;;;35.35;;
52848;SDS011;38714;53.180;5.812;2022-11-15T07:22:34;61.17;;;32.17;;
52848;SDS011;38714;53.180;5.812;2022-11-15T07:25:00;77.78;;;35.60;;
52848;SDS011;38714;53.180;5.812;2022-11-15T07:27:25;75.10;;;35.78;;
52848;SDS011;38714;53.180;5.812;2022-11-15T07:29:51;65.82;;;37.05;;
52848;SDS011;38714;53.180;5.812;2022-11-15T07:32:16;67.50;;;36.95;;
52848;SDS011;38714;53.180;5.812;2022-11-15T07:34:42;64.40;;;33.88;;
52848;SDS011;38714;53.180;5.812;2022-11-15T07:37:08;67.20;;;35.33;;
52848;SDS011;38714;53.180;5.812;2022-11-15T07:39:34;70.68;;;33.58;;
52848;SDS011;38714;53.180;5.812;2022-11-15T07:41:59;66.43;;;35.30;;
52848;SDS011;38714;53.180;5.812;2022-11-15T07:44:44;67.93;;;33.00;;
52848;SDS011;38714;53.180;5.812;2022-11-15T07:47:09;65.28;;;35.72;;
52848;SDS011;38714;53.180;5.812;2022-11-15T07:49:35;60.38;;;32.42;;
52848;SDS011;38714;53.180;5.812;2022-11-15T07:52:00;53.88;;;31.90;;
52848;SDS011;38714;53.180;5.812;2022-11-15T07:54:26;72.68;;;32.85;;
52848;SDS011;38714;53.180;5.812;2022-11-15T07:56:51;77.55;;;30.55;;
52848;SDS011;38714;53.180;5.812;2022-11-15T07:59:17;65.28;;;32.90;;
52848;SDS011;38714;53.180;5.812;2022-11-15T08:01:44;64.53;;;32.67;;
52848;SDS011;38714;53.180;5.812;2022-11-15T08:04:10;55.67;;;31.17;;
52848;SDS011;38714;53.180;5.812;2022-11-15T08:06:36;59.88;;;30.13;;
52848;SDS011;38714;53.180;5.812;2022-11-15T08:09:02;58.92;;;31.10;;
52848;SDS011;38714;53.180;5.812;2022-11-15T08:11:28;53.22;;;29.23;;
52848;SDS011;38714;53.180;5.812;2022-11-15T08:13:53;56.35;;;30.15;;
52848;SDS011;38714;53.180;5.812;2022-11-15T08:16:19;57.03;;;29.50;;
52848;SDS011;38714;53.180;5.812;2022-11-15T08:18:44;71.90;;;34.97;;
52848;SDS011;38714;53.180;5.812;2022-11-15T08:21:10;59.08;;;29.45;;
52848;SDS011;38714;53.180;5.812;2022-11-15T08:23:39;61.13;;;29.98;;
52848;SDS011;38714;53.180;5.812;2022-11-15T08:26:05;63.90;;;33.20;;
52848;SDS011;38714;53.180;5.812;2022-11-15T08:28:31;52.38;;;28.75;;
52848;SDS011;38714;53.180;5.812;2022-11-15T08:30:57;55.25;;;30.38;;
52848;SDS011;38714;53.180;5.812;2022-11-15T08:33:23;54.20;;;31.65;;
52848;SDS011;38714;53.180;5.812;2022-11-15T08:35:48;64.93;;;29.58;;
52848;SDS011;38714;53.180;5.812;2022-11-15T08:38:14;51.75;;;28.85;;
52848;SDS011;38714;53.180;5.812;2022-11-15T08:40:39;54.28;;;29.35;;
52848;SDS011;38714;53.180;5.812;2022-11-15T08:43:05;56.33;;;29.35;;
52848;SDS011;38714;53.180;5.812;2022-11-15T08:45:31;52.55;;;32.78;;
52848;SDS011;38714;53.180;5.812;2022-11-15T08:48:00;61.33;;;32.10;;
52848;SDS011;38714;53.180;5.812;2022-11-15T08:50:26;63.55;;;31.13;;
52848;SDS011;38714;53.180;5.812;2022-11-15T08:52:52;58.75;;;29.02;;
52848;SDS011;38714;53.180;5.812;2022-11-15T08:55:17;47.50;;;27.83;;
52848;SDS011;38714;53.180;5.812;2022-11-15T08:57:43;53.70;;;27.85;;
52848;SDS011;38714;53.180;5.812;2022-11-15T09:00:09;49.22;;;29.02;;
52848;SDS011;38714;53.180;5.812;2022-11-15T09:02:37;55.72;;;26.50;;
52848;SDS011;38714;53.180;5.812;2022-11-15T09:05:03;49.97;;;27.48;;
52848;SDS011;38714;53.180;5.812;2022-11-15T09:07:29;55.13;;;26.83;;
52848;SDS011;38714;53.180;5.812;2022-11-15T09:09:56;41.05;;;25.00;;
52848;SDS011;38714;53.180;5.812;2022-11-15T09:12:22;47.58;;;26.17;;
52848;SDS011;38714;53.180;5.812;2022-11-15T09:14:48;52.83;;;26.85;;
52848;SDS011;38714;53.180;5.812;2022-11-15T09:17:14;49.13;;;24.77;;
52848;SDS011;38714;53.180;5.812;2022-11-15T09:19:39;38.40;;;25.65;;
52848;SDS011;38714;53.180;5.812;2022-11-15T09:22:06;37.67;;;22.30;;
52848;SDS011;38714;53.180;5.812;2022-11-15T09:24:32;49.33;;;24.25;;
52848;SDS011;38714;53.180;5.812;2022-11-15T09:26:58;36.90;;;21.15;;
52848;SDS011;38714;53.180;5.812;2022-11-15T09:29:24;37.35;;;23.05;;
52848;SDS011;38714;53.180;5.812;2022-11-15T09:31:53;36.50;;;25.02;;
52848;SDS011;38714;53.180;5.812;2022-11-15T09:34:18;35.05;;;22.08;;
52848;SDS011;38714;53.180;5.812;2022-11-15T09:36:44;35.97;;;20.52;;
52848;SDS011;38714;53.180;5.812;2022-11-15T09:39:10;32.03;;;20.52;;
52848;SDS011;38714;53.180;5.812;2022-11-15T09:49:57;35.83;;;19.67;;
52848;SDS011;38714;53.180;5.812;2022-11-15T09:52:26;32.10;;;19.85;;
52848;SDS011;38714;53.180;5.812;2022-11-15T09:54:52;37.25;;;20.63;;
52848;SDS011;38714;53.180;5.812;2022-11-15T10:02:57;30.17;;;19.52;;
52848;SDS011;38714;53.180;5.812;2022-11-15T10:05:38;38.28;;;19.05;;
52848;SDS011;38714;53.180;5.812;2022-11-15T10:10:52;30.60;;;18.65;;
52848;SDS011;38714;53.180;5.812;2022-11-15T10:13:31;37.95;;;19.98;;
52848;SDS011;38714;53.180;5.812;2022-11-15T10:24:39;28.88;;;18.67;;
52848;SDS011;38714;53.180;5.812;2022-11-15T10:27:09;29.15;;;17.38;;
52848;SDS011;38714;53.180;5.812;2022-11-15T10:29:40;26.77;;;19.35;;
52848;SDS011;38714;53.180;5.812;2022-11-15T10:32:15;30.92;;;21.20;;
52848;SDS011;38714;53.180;5.812;2022-11-15T10:34:42;24.65;;;17.45;;
52848;SDS011;38714;53.180;5.812;2022-11-15T10:37:08;30.75;;;18.42;;
52848;SDS011;38714;53.180;5.812;2022-11-15T10:39:34;26.27;;;17.10;;
52848;SDS011;38714;53.180;5.812;2022-11-15T10:45:01;26.85;;;15.45;;
52848;SDS011;38714;53.180;5.812;2022-11-15T10:47:28;28.67;;;19.80;;
52848;SDS011;38714;53.180;5.812;2022-11-15T10:50:26;27.50;;;17.08;;
52848;SDS011;38714;53.180;5.812;2022-11-15T10:52:53;19.77;;;14.38;;
52848;SDS011;38714;53.180;5.812;2022-11-15T10:55:23;25.42;;;15.73;;
52848;SDS011;38714;53.180;5.812;2022-11-15T10:57:56;25.98;;;16.70;;
52848;SDS011;38714;53.180;5.812;2022-11-15T11:00:30;20.33;;;13.90;;
52848;SDS011;38714;53.180;5.812;2022-11-15T11:03:00;23.05;;;14.05;;
52848;SDS011;38714;53.180;5.812;2022-11-15T11:05:33;24.80;;;15.25;;
52848;SDS011;38714;53.180;5.812;2022-11-15T11:10:53;25.25;;;14.57;;
52848;SDS011;38714;53.180;5.812;2022-11-15T11:13:22;21.25;;;13.18;;
52848;SDS011;38714;53.180;5.812;2022-11-15T11:21:50;19.77;;;11.75;;
52848;SDS011;38714;53.180;5.812;2022-11-15T11:32:30;17.98;;;13.00;;
52848;SDS011;38714;53.180;5.812;2022-11-15T11:38:09;14.70;;;10.77;;
52848;SDS011;38714;53.180;5.812;2022-11-15T11:46:42;17.15;;;11.55;;
52848;SDS011;38714;53.180;5.812;2022-11-15T12:00:25;13.50;;;8.35;;
52848;SDS011;38714;53.180;5.812;2022-11-15T12:05:54;12.07;;;8.82;;
52848;SDS011;38714;53.180;5.812;2022-11-15T12:14:05;11.40;;;7.63;;
52848;SDS011;38714;53.180;5.812;2022-11-15T12:16:44;8.93;;;7.53;;
52848;SDS011;38714;53.180;5.812;2022-11-15T12:19:10;10.73;;;7.60;;
52848;SDS011;38714;53.180;5.812;2022-11-15T12:21:39;8.68;;;7.15;;
52848;SDS011;38714;53.180;5.812;2022-11-15T12:24:24;14.35;;;8.85;;
52848;SDS011;38714;53.180;5.812;2022-11-15T12:27:00;15.00;;;8.02;;
52848;SDS011;38714;53.180;5.812;2022-11-15T12:29:49;10.80;;;7.80;;
52848;SDS011;38714;53.180;5.812;2022-11-15T12:32:29;12.82;;;8.13;;
52848;SDS011;38714;53.180;5.812;2022-11-15T12:34:58;11.60;;;6.95;;
52848;SDS011;38714;53.180;5.812;2022-11-15T12:40:04;7.28;;;6.50;;
52848;SDS011;38714;53.180;5.812;2022-11-15T12:44:56;5.22;;;3.95;;
52848;SDS011;38714;53.180;5.812;2022-11-15T12:47:24;8.18;;;3.85;;
52848;SDS011;38714;53.180;5.812;2022-11-15T12:49:51;6.18;;;3.78;;
52848;SDS011;38714;53.180;5.812;2022-11-15T12:52:18;14.48;;;3.63;;
52848;SDS011;38714;53.180;5.812;2022-11-15T12:54:55;2.95;;;2.42;;
52848;SDS011;38714;53.180;5.812;2022-11-15T12:57:26;5.18;;;3.22;;
52848;SDS011;38714;53.180;5.812;2022-11-15T12:59:58;5.82;;;3.40;;
52848;SDS011;38714;53.180;5.812;2022-11-15T13:17:50;3.20;;;1.77;;
52848;SDS011;38714;53.180;5.812;2022-11-15T13:20:18;3.03;;;2.40;;
52848;SDS011;38714;53.180;5.812;2022-11-15T13:22:47;5.97;;;2.35;;
52848;SDS011;38714;53.180;5.812;2022-11-15T13:35:54;3.30;;;2.25;;
52848;SDS011;38714;53.180;5.812;2022-11-15T13:40:59;2.60;;;2.13;;
52848;SDS011;38714;53.180;5.812;2022-11-15T13:43:35;3.50;;;2.13;;
52848;SDS011;38714;53.180;5.812;2022-11-15T13:48:37;2.10;;;1.85;;
52848;SDS011;38714;53.180;5.812;2022-11-15T13:51:09;2.92;;;2.35;;
52848;SDS011;38714;53.180;5.812;2022-11-15T13:53:41;4.25;;;2.35;;
52848;SDS011;38714;53.180;5.812;2022-11-15T13:56:11;4.60;;;2.60;;
52848;SDS011;38714;53.180;5.812;2022-11-15T13:58:38;3.88;;;2.50;;
52848;SDS011;38714;53.180;5.812;2022-11-15T14:01:04;5.65;;;2.28;;
52848;SDS011;38714;53.180;5.812;2022-11-15T14:03:32;3.05;;;2.20;;
52848;SDS011;38714;53.180;5.812;2022-11-15T14:09:02;6.03;;;2.72;;
52848;SDS011;38714;53.180;5.812;2022-11-15T14:11:25;4.15;;;2.97;;
52848;SDS011;38714;53.180;5.812;2022-11-15T14:16:51;2.95;;;2.65;;
52848;SDS011;38714;53.180;5.812;2022-11-15T14:24:40;4.40;;;2.20;;
52848;SDS011;38714;53.180;5.812;2022-11-15T14:29:41;4.82;;;2.20;;
52848;SDS011;38714;53.180;5.812;2022-11-15T14:34:42;3.15;;;2.10;;
52848;SDS011;38714;53.180;5.812;2022-11-15T14:37:29;2.15;;;1.95;;
52848;SDS011;38714;53.180;5.812;2022-11-15T14:39:57;5.30;;;2.70;;
52848;SDS011;38714;53.180;5.812;2022-11-15T14:42:23;2.35;;;2.15;;
52848;SDS011;38714;53.180;5.812;2022-11-15T14:44:49;3.53;;;2.47;;
52848;SDS011;38714;53.180;5.812;2022-11-15T14:47:15;4.88;;;3.15;;
52848;SDS011;38714;53.180;5.812;2022-11-15T14:49:41;6.07;;;2.45;;
52848;SDS011;38714;53.180;5.812;2022-11-15T14:54:53;3.83;;;2.38;;
52848;SDS011;38714;53.180;5.812;2022-11-15T14:57:20;2.38;;;1.73;;
52848;SDS011;38714;53.180;5.812;2022-11-15T14:59:46;2.13;;;1.88;;
52848;SDS011;38714;53.180;5.812;2022-11-15T15:02:16;1.80;;;1.15;;
52848;SDS011;38714;53.180;5.812;2022-11-15T15:04:46;1.70;;;1.50;;
52848;SDS011;38714;53.180;5.812;2022-11-15T15:07:12;2.38;;;1.23;;
52848;SDS011;38714;53.180;5.812;2022-11-15T15:09:38;3.15;;;2.03;;
52848;SDS011;38714;53.180;5.812;2022-11-15T15:12:04;1.10;;;0.98;;
52848;SDS011;38714;53.180;5.812;2022-11-15T15:14:38;4.18;;;2.08;;
52848;SDS011;38714;53.180;5.812;2022-11-15T15:17:03;3.08;;;1.73;;
52848;SDS011;38714;53.180;5.812;2022-11-15T15:19:29;2.03;;;1.25;;
52848;SDS011;38714;53.180;5.812;2022-11-15T15:21:55;1.25;;;1.15;;
52848;SDS011;38714;53.180;5.812;2022-11-15T15:24:20;4.15;;;2.15;;
52848;SDS011;38714;53.180;5.812;2022-11-15T15:26:46;2.95;;;2.03;;
52848;SDS011;38714;53.180;5.812;2022-11-15T15:29:12;2.65;;;1.45;;
52848;SDS011;38714;53.180;5.812;2022-11-15T15:31:38;2.45;;;2.13;;
52848;SDS011;38714;53.180;5.812;2022-11-15T15:34:04;3.08;;;2.42;;
52848;SDS011;38714;53.180;5.812;2022-11-15T15:36:29;2.40;;;1.98;;
52848;SDS011;38714;53.180;5.812;2022-11-15T15:38:55;4.88;;;2.10;;
52848;SDS011;38714;53.180;5.812;2022-11-15T15:41:20;3.63;;;2.10;;
52848;SDS011;38714;53.180;5.812;2022-11-15T15:43:46;2.10;;;1.90;;
52848;SDS011;38714;53.180;5.812;2022-11-15T15:46:16;4.40;;;1.85;;
52848;SDS011;38714;53.180;5.812;2022-11-15T15:48:43;4.22;;;1.83;;
52848;SDS011;38714;53.180;5.812;2022-11-15T15:51:10;2.15;;;1.98;;
52848;SDS011;38714;53.180;5.812;2022-11-15T15:53:36;2.15;;;1.25;;
52848;SDS011;38714;53.180;5.812;2022-11-15T15:56:02;3.47;;;1.88;;
52848;SDS011;38714;53.180;5.812;2022-11-15T15:58:28;1.98;;;1.67;;
52848;SDS011;38714;53.180;5.812;2022-11-15T16:00:54;3.28;;;1.35;;
52848;SDS011;38714;53.180;5.812;2022-11-15T16:03:20;1.08;;;1.00;;
52848;SDS011;38714;53.180;5.812;2022-11-15T16:05:45;2.33;;;1.48;;
52848;SDS011;38714;53.180;5.812;2022-11-15T16:08:18;1.38;;;1.27;;
52848;SDS011;38714;53.180;5.812;2022-11-15T16:10:45;1.40;;;1.10;;
52848;SDS011;38714;53.180;5.812;2022-11-15T16:13:10;1.75;;;1.65;;
52848;SDS011;38714;53.180;5.812;2022-11-15T16:15:36;2.67;;;2.47;;
52848;SDS011;38714;53.180;5.812;2022-11-15T16:18:03;2.53;;;2.33;;
52848;SDS011;38714;53.180;5.812;2022-11-15T16:23:13;2.95;;;1.83;;
52848;SDS011;38714;53.180;5.812;2022-11-15T16:25:41;3.15;;;2.88;;
52848;SDS011;38714;53.180;5.812;2022-11-15T16:28:28;4.63;;;2.65;;
52848;SDS011;38714;53.180;5.812;2022-11-15T16:31:05;7.25;;;3.97;;
52848;SDS011;38714;53.180;5.812;2022-11-15T16:33:34;13.50;;;6.82;;
52848;SDS011;38714;53.180;5.812;2022-11-15T16:36:00;8.13;;;4.85;;
52848;SDS011;38714;53.180;5.812;2022-11-15T16:38:26;3.75;;;3.33;;
52848;SDS011;38714;53.180;5.812;2022-11-15T16:40:51;6.28;;;3.33;;
52848;SDS011;38714;53.180;5.812;2022-11-15T16:43:17;6.07;;;4.95;;
52848;SDS011;38714;53.180;5.812;2022-11-15T16:45:43;4.13;;;3.72;;
52848;SDS011;38714;53.180;5.812;2022-11-15T16:48:27;3.90;;;3.30;;
52848;SDS011;38714;53.180;5.812;2022-11-15T16:50:59;5.93;;;4.03;;
52848;SDS011;38714;53.180;5.812;2022-11-15T16:53:25;4.95;;;3.47;;
52848;SDS011;38714;53.180;5.812;2022-11-15T16:55:51;3.72;;;3.15;;
52848;SDS011;38714;53.180;5.812;2022-11-15T16:58:18;4.32;;;3.13;;
52848;SDS011;38714;53.180;5.812;2022-11-15T17:00:43;3.70;;;3.20;;
52848;SDS011;38714;53.180;5.812;2022-11-15T17:03:09;3.75;;;2.67;;
52848;SDS011;38714;53.180;5.812;2022-11-15T17:05:34;3.97;;;2.10;;
52848;SDS011;38714;53.180;5.812;2022-11-15T17:08:00;5.70;;;3.50;;
52848;SDS011;38714;53.180;5.812;2022-11-15T17:10:26;7.93;;;4.03;;
52848;SDS011;38714;53.180;5.812;2022-11-15T17:12:51;12.73;;;5.13;;
52848;SDS011;38714;53.180;5.812;2022-11-15T17:15:19;15.43;;;7.80;;
52848;SDS011;38714;53.180;5.812;2022-11-15T17:17:45;13.07;;;5.95;;
52848;SDS011;38714;53.180;5.812;2022-11-15T17:20:19;8.80;;;6.65;;
52848;SDS011;38714;53.180;5.812;2022-11-15T17:22:46;12.70;;;7.95;;
52848;SDS011;38714;53.180;5.812;2022-11-15T17:25:12;8.93;;;6.30;;
52848;SDS011;38714;53.180;5.812;2022-11-15T17:27:38;5.18;;;3.83;;
52848;SDS011;38714;53.180;5.812;2022-11-15T17:30:05;8.70;;;4.82;;